Terminal Aerodrome Forecast
Issued by NWS Kansas City/Pleasant Hill, MO

Current Version | Previous Version | Text Only | Print | Product List | Glossary On
Versions: 1 2 3 4 5 6 7 8 9 10 11 12 13 14 15 16
000
FTUS43 KEAX 180700 AAA
TAFMCI
TAF AMD
KMCI 180713Z 1807/1906 09005KT 3SM BR OVC005
     FM181000 09004KT 1SM BR OVC003
     FM181400 09005KT 3SM BR OVC008
     FM181800 10008KT P6SM SCT020
     FM190000 09005KT P6SM BKN020=

USA.gov is the U.S. government's official web portal to all federal, state and local government web resources and services.